createdAt,value
2016-05-07T00:00:49.843Z,0
2016-05-07T00:01:49.689Z,0
2016-05-07T00:02:49.567Z,0
2016-05-07T00:03:49.898Z,0
2016-05-07T00:04:49.650Z,0
2016-05-07T00:05:49.981Z,0
2016-05-07T00:07:49.690Z,0
2016-05-07T00:08:49.692Z,0
2016-05-07T00:10:03.945Z,0
2016-05-07T00:11:04.025Z,0
2016-05-07T00:11:49.232Z,0
2016-05-07T00:12:49.672Z,0
2016-05-07T00:14:03.471Z,0
2016-05-07T00:15:03.787Z,0
2016-05-07T00:16:03.742Z,0
2016-05-07T00:16:49.713Z,0
2016-05-07T00:18:03.732Z,0
2016-05-07T00:18:49.188Z,0
2016-05-07T00:19:49.707Z,0
2016-05-07T00:20:49.756Z,0
2016-05-07T00:21:49.571Z,0
2016-05-07T00:22:49.918Z,0
2016-05-07T00:24:03.701Z,0
2016-05-07T00:24:49.563Z,0
2016-05-07T00:25:49.066Z,0
2016-05-07T00:27:49.712Z,0
2016-05-07T00:28:49.746Z,0
2016-05-07T00:29:49.748Z,0
2016-05-07T00:30:49.737Z,0
2016-05-07T00:31:49.754Z,0
2016-05-07T00:32:49.742Z,0
2016-05-07T00:33:49.603Z,0
2016-05-07T00:34:49.809Z,0
2016-05-07T00:36:03.687Z,0
2016-05-07T00:36:49.798Z,0
2016-05-07T00:37:49.990Z,0
2016-05-07T00:38:49.617Z,0
2016-05-07T00:39:49.807Z,0
2016-05-07T00:40:50.247Z,0
2016-05-07T00:41:50.719Z,0
2016-05-07T00:43:04.314Z,0
2016-05-07T00:43:49.849Z,0
2016-05-07T00:44:49.524Z,0
2016-05-07T00:45:49.698Z,0
2016-05-07T00:46:50.013Z,0
2016-05-07T00:47:50.063Z,0
2016-05-07T00:48:49.425Z,0
2016-05-07T00:49:49.708Z,0
2016-05-07T00:50:50.086Z,0
2016-05-07T00:51:49.839Z,0
2016-05-07T00:52:49.920Z,0
2016-05-07T00:53:49.782Z,0
2016-05-07T00:54:49.754Z,0
2016-05-07T00:55:49.944Z,0
2016-05-07T00:56:49.869Z,0
2016-05-07T00:57:50.089Z,0
2016-05-07T00:58:49.905Z,0
2016-05-07T00:59:49.907Z,0
2016-05-07T01:00:49.754Z,0
2016-05-07T01:01:49.912Z,0
2016-05-07T01:02:50.150Z,0
2016-05-07T01:03:49.731Z,0
2016-05-07T01:04:50.546Z,0
2016-05-07T01:05:49.924Z,0
2016-05-07T01:06:49.473Z,0
2016-05-07T01:07:49.914Z,0
2016-05-07T01:08:50.228Z,0
2016-05-07T01:09:50.387Z,0
2016-05-07T01:10:49.937Z,0
2016-05-07T01:11:49.815Z,0
2016-05-07T01:13:04.020Z,0
2016-05-07T01:13:49.945Z,0
2016-05-07T01:14:49.933Z,0
2016-05-07T01:15:50.013Z,0
2016-05-07T01:16:50.203Z,0
2016-05-07T01:17:49.988Z,0
2016-05-07T01:18:49.990Z,0
2016-05-07T01:19:49.961Z,0
2016-05-07T01:20:49.838Z,0
2016-05-07T01:21:49.983Z,0
2016-05-07T01:22:50.047Z,0
2016-05-07T01:23:49.691Z,0
2016-05-07T01:24:49.865Z,0
2016-05-07T01:26:03.806Z,0
2016-05-07T01:26:50.011Z,0
2016-05-07T01:27:50.296Z,0
2016-05-07T01:28:50.064Z,0
2016-05-07T01:29:49.895Z,0
2016-05-07T01:30:49.568Z,0
2016-05-07T01:31:50.026Z,0
2016-05-07T01:32:50.043Z,0
2016-05-07T01:33:50.031Z,0
2016-05-07T01:35:04.112Z,0
2016-05-07T01:35:50.067Z,0
2016-05-07T01:36:50.039Z,0
2016-05-07T01:37:50.056Z,0
2016-05-07T01:38:50.044Z,0
2016-05-07T01:39:49.578Z,0
2016-05-07T01:40:50.065Z,0
2016-05-07T01:41:49.967Z,0
2016-05-07T01:42:50.098Z,0
2016-05-07T01:43:50.148Z,0
2016-05-07T01:44:50.288Z,0
2016-05-07T01:45:49.962Z,0
2016-05-07T01:46:50.309Z,0
2016-05-07T01:48:04.187Z,0
2016-05-07T01:48:49.954Z,0
2016-05-07T01:49:50.159Z,0
2016-05-07T01:50:50.117Z,0
2016-05-07T01:51:49.822Z,0
2016-05-07T01:52:50.121Z,0
2016-05-07T01:53:49.968Z,0
2016-05-07T01:54:50.111Z,0
2016-05-07T01:55:50.442Z,0
2016-05-07T01:56:50.570Z,0
2016-05-07T01:57:50.978Z,0
2016-05-07T01:58:49.997Z,0
2016-05-07T01:59:50.187Z,0
2016-05-07T02:00:50.330Z,0
2016-05-07T02:02:04.271Z,0
2016-05-07T02:02:50.149Z,0
2016-05-07T02:03:50.151Z,0
2016-05-07T02:04:50.013Z,0
2016-05-07T02:05:50.203Z,0
2016-05-07T02:06:50.456Z,0
2016-05-07T02:07:50.208Z,0
2016-05-07T02:09:04.321Z,0
2016-05-07T02:10:02.823Z,0
2016-05-07T02:10:50.404Z,0
2016-05-07T02:11:50.219Z,0
2016-05-07T02:13:04.488Z,0
2016-05-07T02:13:50.271Z,0
2016-05-07T02:14:50.196Z,0
2016-05-07T02:15:50.214Z,0
2016-05-07T02:16:50.233Z,0
2016-05-07T02:17:50.282Z,0
2016-05-07T02:18:50.223Z,0
2016-05-07T02:20:04.303Z,0
2016-05-07T02:20:50.087Z,0
2016-05-07T02:21:50.495Z,0
2016-05-07T02:22:50.109Z,0
2016-05-07T02:23:50.501Z,0
2016-05-07T02:24:50.273Z,0
2016-05-07T02:26:04.557Z,0
2016-05-07T02:27:04.059Z,0
2016-05-07T02:27:51.578Z,0
2016-05-07T02:28:50.315Z,0
2016-05-07T02:29:50.271Z,0
2016-05-07T02:30:50.320Z,0
2016-05-07T02:31:50.510Z,0
2016-05-07T02:32:49.778Z,0
2016-05-07T02:33:50.126Z,0
2016-05-07T02:34:50.144Z,0
2016-05-07T02:35:50.365Z,0
2016-05-07T02:36:49.992Z,0
2016-05-07T02:37:50.510Z,0
2016-05-07T02:38:50.295Z,0
2016-05-07T02:39:50.314Z,0
2016-05-07T02:40:50.378Z,0
2016-05-07T02:41:50.428Z,0
2016-05-07T02:43:05.618Z,0
2016-05-07T02:43:50.386Z,0
2016-05-07T02:44:50.139Z,0
2016-05-07T02:45:50.189Z,0
2016-05-07T02:46:50.035Z,0
2016-05-07T02:47:50.038Z,0
2016-05-07T02:48:50.384Z,0
2016-05-07T02:50:04.418Z,0
2016-05-07T02:50:50.218Z,0
2016-05-07T02:51:50.346Z,0
2016-05-07T02:52:50.364Z,0
2016-05-07T02:53:50.413Z,0
2016-05-07T02:54:50.354Z,0
2016-05-07T02:55:50.434Z,0
2016-05-07T02:56:50.578Z,0
2016-05-07T02:57:50.690Z,0
2016-05-07T02:58:49.895Z,0
2016-05-07T02:59:50.258Z,0
2016-05-07T03:00:50.276Z,0
2016-05-07T03:01:50.466Z,0
2016-05-07T03:02:50.469Z,0
2016-05-07T03:03:50.628Z,0
2016-05-07T03:04:50.318Z,0
2016-05-07T03:05:50.602Z,0
2016-05-07T03:06:50.620Z,0
2016-05-07T03:07:50.435Z,0
2016-05-07T03:08:50.282Z,0
2016-05-07T03:09:50.425Z,0
2016-05-07T03:10:50.616Z,0
2016-05-07T03:11:50.415Z,0
2016-05-07T03:13:05.168Z,0
2016-05-07T03:13:49.966Z,0
2016-05-07T03:14:50.830Z,0
2016-05-07T03:15:50.426Z,0
2016-05-07T03:16:50.413Z,0
2016-05-07T03:17:50.446Z,0
2016-05-07T03:18:49.996Z,0
2016-05-07T03:19:49.998Z,5
2016-05-07T03:20:50.315Z,5
2016-05-07T03:21:50.442Z,5
2016-05-07T03:22:50.476Z,5
2016-05-07T03:23:50.728Z,5
2016-05-07T03:24:50.716Z,5
2016-05-07T03:26:04.578Z,5
2016-05-07T03:26:50.518Z,10
2016-05-07T03:27:50.754Z,10
2016-05-07T03:28:50.039Z,10
2016-05-07T03:29:50.525Z,10
2016-05-07T03:30:50.217Z,10
2016-05-07T03:31:50.484Z,10
2016-05-07T03:32:50.518Z,15
2016-05-07T03:33:50.395Z,15
2016-05-07T03:34:50.399Z,15
2016-05-07T03:35:50.776Z,15
2016-05-07T03:37:04.436Z,20
2016-05-07T03:37:50.719Z,20
2016-05-07T03:38:50.738Z,20
2016-05-07T03:39:50.505Z,20
2016-05-07T03:40:50.369Z,25
2016-05-07T03:41:50.574Z,25
2016-05-07T03:42:50.919Z,25
2016-05-07T03:43:50.391Z,25
2016-05-07T03:44:50.535Z,30
2016-05-07T03:45:50.600Z,30
2016-05-07T03:46:50.416Z,30
2016-05-07T03:47:50.621Z,35
2016-05-07T03:48:50.421Z,35
2016-05-07T03:49:50.580Z,35
2016-05-07T03:50:50.941Z,40
2016-05-07T03:51:50.569Z,40
2016-05-07T03:52:50.556Z,40
2016-05-07T03:53:50.606Z,45
2016-05-07T03:54:50.827Z,45
2016-05-07T03:56:04.876Z,45
2016-05-07T03:56:50.833Z,50
2016-05-07T03:57:50.507Z,50
2016-05-07T03:58:50.573Z,50
2016-05-07T03:59:50.622Z,55
2016-05-07T04:00:51.078Z,55
2016-05-07T04:01:50.628Z,55
2016-05-07T04:02:50.442Z,55
2016-05-07T04:03:50.336Z,60
2016-05-07T04:04:50.823Z,60
2016-05-07T04:05:50.654Z,60
2016-05-07T04:06:50.344Z,65
2016-05-07T04:07:50.628Z,65
2016-05-07T04:08:50.834Z,65
2016-05-07T04:10:04.680Z,70
2016-05-07T04:10:50.636Z,70
2016-05-07T04:12:50.329Z,75
2016-05-07T04:13:51.066Z,75
2016-05-07T04:14:50.147Z,75
2016-05-07T04:15:50.524Z,80
2016-05-07T04:17:04.449Z,80
2016-05-07T04:17:50.671Z,80
2016-05-07T04:19:04.939Z,85
2016-05-07T04:19:50.707Z,85
2016-05-07T04:20:50.851Z,85
2016-05-07T04:21:50.853Z,85
2016-05-07T04:23:04.731Z,90
2016-05-07T04:23:50.562Z,90
2016-05-07T04:24:50.690Z,90
2016-05-07T04:25:50.551Z,95
2016-05-07T04:26:50.695Z,95
2016-05-07T04:27:50.760Z,95
2016-05-07T04:28:50.200Z,95
2016-05-07T04:29:50.562Z,95
2016-05-07T04:30:50.737Z,95
2016-05-07T04:31:50.739Z,100
2016-05-07T04:33:04.773Z,100
2016-05-07T04:33:50.745Z,100
2016-05-07T04:34:50.778Z,100
2016-05-07T04:35:54.048Z,100
2016-05-07T04:36:50.737Z,100
2016-05-07T04:38:04.802Z,110
2016-05-07T04:38:50.743Z,105
2016-05-07T04:39:50.761Z,105
2016-05-07T04:40:50.732Z,105
2016-05-07T04:41:51.000Z,110
2016-05-07T04:43:04.661Z,110
2016-05-07T04:43:51.225Z,110
2016-05-07T04:44:50.321Z,110
2016-05-07T04:45:50.996Z,115
2016-05-07T04:47:05.014Z,115
2016-05-07T04:47:51.017Z,115
2016-05-07T04:49:04.847Z,115
2016-05-07T04:49:50.991Z,115
2016-05-07T04:50:51.010Z,120
2016-05-07T04:51:50.762Z,120
2016-05-07T04:52:50.624Z,120
2016-05-07T04:53:50.876Z,120
2016-05-07T04:54:50.801Z,120
2016-05-07T04:55:50.804Z,125
2016-05-07T04:57:51.278Z,125
2016-05-07T04:58:50.843Z,125
2016-05-07T04:59:50.893Z,130
2016-05-07T05:01:04.927Z,130
2016-05-07T05:01:51.086Z,130
2016-05-07T05:03:04.839Z,130
2016-05-07T05:03:50.966Z,130
2016-05-07T05:05:19.188Z,135
2016-05-07T05:05:50.597Z,135
2016-05-07T05:06:50.849Z,135
2016-05-07T05:07:51.508Z,135
2016-05-07T05:08:51.370Z,135
2016-05-07T05:10:04.779Z,135
2016-05-07T05:10:50.548Z,135
2016-05-07T05:11:50.878Z,135
2016-05-07T05:12:51.866Z,140
2016-05-07T05:13:50.727Z,140
2016-05-07T05:14:50.886Z,140
2016-05-07T05:15:50.780Z,140
2016-05-07T05:16:50.408Z,140
2016-05-07T05:17:51.175Z,140
2016-05-07T05:18:50.788Z,140
2016-05-07T05:19:51.119Z,140
2016-05-07T05:20:50.980Z,145
2016-05-07T05:21:50.469Z,145
2016-05-07T05:22:51.143Z,145
2016-05-07T05:23:51.145Z,145
2016-05-07T05:24:51.148Z,145
2016-05-07T05:25:50.932Z,145
2016-05-07T05:26:51.403Z,145
2016-05-07T05:27:50.859Z,145
2016-05-07T05:28:51.018Z,145
2016-05-07T05:30:51.195Z,155
2016-05-07T05:32:05.323Z,150
2016-05-07T05:32:50.873Z,150
2016-05-07T05:33:51.015Z,150
2016-05-07T05:34:50.878Z,150
2016-05-07T05:35:51.224Z,150
2016-05-07T05:36:51.023Z,150
2016-05-07T05:38:04.948Z,150
2016-05-07T05:38:51.295Z,150
2016-05-07T05:39:51.641Z,155
2016-05-07T05:40:51.035Z,155
2016-05-07T05:41:51.131Z,155
2016-05-07T05:43:05.274Z,155
2016-05-07T05:43:51.043Z,155
2016-05-07T05:44:51.139Z,155
2016-05-07T05:46:05.001Z,155
2016-05-07T05:46:50.628Z,155
2016-05-07T05:47:51.085Z,155
2016-05-07T05:48:50.447Z,155
2016-05-07T05:49:50.933Z,155
2016-05-07T05:50:51.061Z,155
2016-05-07T05:51:51.314Z,155
2016-05-07T05:52:51.349Z,155
2016-05-07T05:53:51.116Z,155
2016-05-07T05:54:51.510Z,160
2016-05-07T05:55:51.200Z,160
2016-05-07T05:56:50.952Z,160
2016-05-07T05:57:51.471Z,160
2016-05-07T05:59:05.443Z,160
2016-05-07T06:00:05.649Z,160
2016-05-07T06:00:51.166Z,160
2016-05-07T06:01:52.013Z,160
2016-05-07T06:02:51.187Z,160
2016-05-07T06:03:51.049Z,160
2016-05-07T06:04:51.381Z,160
2016-05-07T06:05:51.180Z,165
2016-05-07T06:07:04.995Z,165
2016-05-07T06:07:51.107Z,165
2016-05-07T06:09:51.207Z,165
2016-05-07T06:10:51.850Z,170
2016-05-07T06:11:51.227Z,165
2016-05-07T06:12:51.214Z,165
2016-05-07T06:14:05.311Z,165
2016-05-07T06:14:51.251Z,165
2016-05-07T06:16:05.332Z,170
2016-05-07T06:16:50.975Z,170
2016-05-07T06:17:51.494Z,170
2016-05-07T06:18:51.106Z,165
2016-05-07T06:19:51.515Z,165
2016-05-07T06:20:51.549Z,165
2016-05-07T06:21:51.473Z,165
2016-05-07T06:22:51.225Z,165
2016-05-07T06:24:05.853Z,165
2016-05-07T06:24:51.763Z,165
2016-05-07T06:25:51.577Z,165
2016-05-07T06:26:51.424Z,165
2016-05-07T06:27:52.896Z,165
2016-05-07T06:28:51.351Z,165
2016-05-07T06:29:51.619Z,165
2016-05-07T06:30:51.418Z,165
2016-05-07T06:31:51.562Z,165
2016-05-07T06:32:51.410Z,165
2016-05-07T06:33:51.630Z,170
2016-05-07T06:34:51.851Z,170
2016-05-07T06:35:51.699Z,170
2016-05-07T06:37:05.467Z,170
2016-05-07T06:37:50.938Z,170
2016-05-07T06:38:51.831Z,170
2016-05-07T06:40:05.725Z,170
2016-05-07T06:40:51.134Z,170
2016-05-07T06:41:51.667Z,170
2016-05-07T06:43:05.686Z,170
2016-05-07T06:44:05.578Z,225
2016-05-07T06:45:51.881Z,435
2016-05-07T06:46:51.681Z,520
2016-05-07T06:48:05.559Z,490
2016-05-07T06:48:51.764Z,335
2016-05-07T06:49:51.533Z,310
2016-05-07T06:50:51.770Z,350
2016-05-07T06:51:51.507Z,230
2016-05-07T06:52:51.744Z,195
2016-05-07T06:53:51.763Z,190
2016-05-07T06:54:51.561Z,180
2016-05-07T06:55:51.408Z,180
2016-05-07T06:56:51.801Z,175
2016-05-07T06:57:53.133Z,175
2016-05-07T06:58:51.244Z,175
2016-05-07T06:59:51.090Z,180
2016-05-07T07:00:51.812Z,185
2016-05-07T07:01:51.784Z,195
2016-05-07T07:02:51.615Z,215
2016-05-07T07:03:51.696Z,195
2016-05-07T07:04:51.667Z,215
2016-05-07T07:05:51.888Z,205
2016-05-07T07:06:52.265Z,190
2016-05-07T07:07:51.847Z,180
2016-05-07T07:08:52.865Z,180
2016-05-07T07:09:51.680Z,180
2016-05-07T07:10:51.512Z,175
2016-05-07T07:12:06.482Z,180
2016-05-07T07:12:51.720Z,175
2016-05-07T07:13:51.956Z,175
2016-05-07T07:14:52.178Z,175
2016-05-07T07:16:51.746Z,175
2016-05-07T07:18:52.986Z,175
2016-05-07T07:19:51.472Z,175
2016-05-07T07:20:51.991Z,175
2016-05-07T07:21:51.759Z,175
2016-05-07T07:22:51.762Z,180
2016-05-07T07:23:51.781Z,180
2016-05-07T07:24:52.017Z,180
2016-05-07T07:25:51.692Z,180
2016-05-07T07:26:52.038Z,180
2016-05-07T07:28:05.963Z,180
2016-05-07T07:28:52.043Z,180
2016-05-07T07:29:51.875Z,180
2016-05-07T07:30:52.050Z,180
2016-05-07T07:31:51.380Z,180
2016-05-07T07:32:51.867Z,180
2016-05-07T07:33:52.073Z,180
2016-05-07T07:34:51.873Z,180
2016-05-07T07:35:52.329Z,185
2016-05-07T07:36:52.332Z,185
2016-05-07T07:37:51.615Z,185
2016-05-07T07:38:51.915Z,195
2016-05-07T07:39:51.807Z,190
2016-05-07T07:40:51.514Z,185
2016-05-07T07:41:52.079Z,185
2016-05-07T07:43:06.379Z,185
2016-05-07T07:43:51.818Z,185
2016-05-07T07:45:06.103Z,185
2016-05-07T07:46:06.308Z,185
2016-05-07T07:46:52.045Z,185
2016-05-07T07:47:52.158Z,185
2016-05-07T07:48:51.770Z,185
2016-05-07T07:49:52.272Z,185
2016-05-07T07:50:52.509Z,190
2016-05-07T07:51:52.402Z,185
2016-05-07T07:53:06.156Z,185
2016-05-07T07:53:52.111Z,185
2016-05-07T07:54:51.817Z,190
2016-05-07T07:56:06.180Z,190
2016-05-07T07:56:51.807Z,190
2016-05-07T07:57:53.856Z,195
2016-05-07T07:58:52.343Z,190
2016-05-07T07:59:52.143Z,190
2016-05-07T08:00:52.458Z,190
2016-05-07T08:01:52.180Z,190
2016-05-07T08:02:52.494Z,195
2016-05-07T08:03:52.388Z,195
2016-05-07T08:04:52.046Z,195
2016-05-07T08:05:52.207Z,195
2016-05-07T08:06:51.912Z,195
2016-05-07T08:07:52.243Z,195
2016-05-07T08:08:52.245Z,195
2016-05-07T08:09:52.170Z,200
2016-05-07T08:11:06.188Z,200
2016-05-07T08:11:52.518Z,200
2016-05-07T08:12:53.725Z,200
2016-05-07T08:13:52.368Z,200
2016-05-07T08:15:06.808Z,200
2016-05-07T08:15:52.577Z,200
2016-05-07T08:17:06.626Z,200
2016-05-07T08:17:52.581Z,200
2016-05-07T08:19:06.444Z,205
2016-05-07T08:19:52.103Z,205
2016-05-07T08:20:52.418Z,205
2016-05-07T08:21:52.234Z,205
2016-05-07T08:23:52.472Z,205
2016-05-07T08:24:51.960Z,200
2016-05-07T08:25:52.448Z,200
2016-05-07T08:26:52.497Z,210
2016-05-07T08:27:52.718Z,215
2016-05-07T08:28:52.679Z,205
2016-05-07T08:29:52.583Z,205
2016-05-07T08:30:52.646Z,210
2016-05-07T08:32:06.785Z,205
2016-05-07T08:32:52.940Z,220
2016-05-07T08:33:52.607Z,205
2016-05-07T08:34:53.547Z,205
2016-05-07T08:35:52.847Z,210
2016-05-07T08:36:53.240Z,210
2016-05-07T08:37:52.898Z,210
2016-05-07T08:38:52.727Z,210
2016-05-07T08:39:56.142Z,205
2016-05-07T08:40:53.182Z,210
2016-05-07T08:41:52.941Z,210
2016-05-07T08:42:52.667Z,205
2016-05-07T08:43:52.847Z,205
2016-05-07T08:45:07.274Z,210
2016-05-07T08:45:52.842Z,205
2016-05-07T08:46:53.033Z,205
2016-05-07T08:47:53.147Z,210
2016-05-07T08:48:53.074Z,210
2016-05-07T08:49:53.062Z,210
2016-05-07T08:50:53.065Z,215
2016-05-07T08:51:53.350Z,225
2016-05-07T08:53:07.181Z,215
2016-05-07T08:53:52.684Z,210
2016-05-07T08:54:52.984Z,210
2016-05-07T08:55:52.910Z,210
2016-05-07T08:56:53.366Z,210
2016-05-07T08:57:53.057Z,210
2016-05-07T08:58:53.481Z,220
2016-05-07T08:59:53.218Z,235
2016-05-07T09:00:53.221Z,250
2016-05-07T09:01:53.396Z,260
2016-05-07T09:03:53.245Z,250
2016-05-07T09:04:53.076Z,225
2016-05-07T09:05:53.266Z,220
2016-05-07T09:07:07.752Z,215
2016-05-07T09:07:53.365Z,215
2016-05-07T09:08:53.508Z,220
2016-05-07T09:09:53.027Z,215
2016-05-07T09:10:53.295Z,220
2016-05-07T09:11:53.204Z,230
2016-05-07T09:13:06.940Z,260
2016-05-07T09:13:53.132Z,280
2016-05-07T09:14:53.118Z,275
2016-05-07T09:15:53.590Z,275
2016-05-07T09:16:53.404Z,275
2016-05-07T09:17:53.626Z,270
2016-05-07T09:18:53.520Z,255
2016-05-07T09:19:53.460Z,235
2016-05-07T09:21:07.509Z,275
2016-05-07T09:21:53.464Z,290
2016-05-07T09:22:53.484Z,275
2016-05-07T09:23:53.486Z,275
2016-05-07T09:24:54.130Z,275
2016-05-07T09:25:53.758Z,270
2016-05-07T09:26:54.416Z,270
2016-05-07T09:27:54.544Z,280
2016-05-07T09:28:53.437Z,325
2016-05-07T09:29:53.439Z,375
2016-05-07T09:30:53.271Z,395
2016-05-07T09:31:53.788Z,380
2016-05-07T09:32:52.979Z,370
2016-05-07T09:33:52.982Z,400
2016-05-07T09:34:53.875Z,415
2016-05-07T09:35:53.753Z,400
2016-05-07T09:36:53.693Z,375
2016-05-07T09:37:53.696Z,335
2016-05-07T09:38:53.682Z,325
2016-05-07T09:39:54.341Z,320
2016-05-07T09:40:52.938Z,315
2016-05-07T09:41:53.629Z,295
2016-05-07T09:42:53.943Z,280
2016-05-07T09:43:53.649Z,295
2016-05-07T09:44:54.012Z,345
2016-05-07T09:45:54.140Z,355
2016-05-07T09:46:53.814Z,290
2016-05-07T09:47:53.582Z,380
2016-05-07T09:49:08.115Z,375
2016-05-07T09:49:53.681Z,415
2016-05-07T09:50:54.356Z,410
2016-05-07T09:52:53.861Z,335
2016-05-07T09:53:53.926Z,295
2016-05-07T09:54:54.100Z,270
2016-05-07T09:55:54.339Z,260
2016-05-07T09:56:54.372Z,270
2016-05-07T09:57:53.828Z,285
2016-05-07T09:58:53.705Z,335
2016-05-07T09:59:53.974Z,325
2016-05-07T10:00:54.227Z,315
2016-05-07T10:01:54.042Z,295
2016-05-07T10:03:08.122Z,265
2016-05-07T10:03:54.281Z,255
2016-05-07T10:04:54.113Z,245
2016-05-07T10:05:54.521Z,240
2016-05-07T10:06:54.118Z,240
2016-05-07T10:08:54.029Z,225
2016-05-07T10:09:54.001Z,270
2016-05-07T10:10:54.144Z,305
2016-05-07T10:11:54.568Z,280
2016-05-07T10:12:54.852Z,320
2016-05-07T10:13:53.699Z,325
2016-05-07T10:14:54.685Z,300
2016-05-07T10:15:54.392Z,255
2016-05-07T10:16:54.473Z,275
2016-05-07T10:17:54.132Z,265
2016-05-07T10:18:54.321Z,275
2016-05-07T10:19:54.121Z,270
2016-05-07T10:20:54.265Z,265
2016-05-07T10:21:54.408Z,265
2016-05-07T10:22:54.535Z,265
2016-05-07T10:23:54.569Z,275
2016-05-07T10:24:54.901Z,280
2016-05-07T10:25:54.356Z,270
2016-05-07T10:26:54.577Z,265
2016-05-07T10:27:54.670Z,260
2016-05-07T10:28:54.375Z,255
2016-05-07T10:29:54.424Z,235
2016-05-07T10:30:54.631Z,220
2016-05-07T10:31:54.023Z,235
2016-05-07T10:32:54.464Z,235
2016-05-07T10:33:54.216Z,240
2016-05-07T10:34:54.923Z,245
2016-05-07T10:35:54.488Z,245
2016-05-07T10:37:08.333Z,250
2016-05-07T10:37:54.400Z,250
2016-05-07T10:38:54.433Z,265
2016-05-07T10:39:55.060Z,290
2016-05-07T10:40:54.610Z,285
2016-05-07T10:41:54.363Z,285
2016-05-07T10:42:54.303Z,275
2016-05-07T10:43:54.493Z,270
2016-05-07T10:44:54.527Z,260
2016-05-07T10:45:54.827Z,260
2016-05-07T10:46:54.688Z,280
2016-05-07T10:47:54.223Z,300
2016-05-07T10:48:54.585Z,310
2016-05-07T10:49:55.401Z,305
2016-05-07T10:50:54.731Z,300
2016-05-07T10:51:54.718Z,290
2016-05-07T10:52:55.159Z,310
2016-05-07T10:53:55.161Z,345
2016-05-07T10:54:54.179Z,355
2016-05-07T10:55:54.197Z,365
2016-05-07T10:56:55.045Z,370
2016-05-07T10:57:54.797Z,385
2016-05-07T10:58:54.830Z,400
2016-05-07T10:59:54.928Z,420
2016-05-07T11:01:09.180Z,440
2016-05-07T11:02:09.385Z,430
2016-05-07T11:02:54.778Z,430
2016-05-07T11:04:08.845Z,430
2016-05-07T11:04:55.175Z,435
2016-05-07T11:05:54.958Z,425
2016-05-07T11:06:55.212Z,430
2016-05-07T11:07:54.995Z,415
2016-05-07T11:08:54.997Z,415
2016-05-07T11:09:55.204Z,420
2016-05-07T11:10:54.878Z,390
2016-05-07T11:11:54.772Z,355
2016-05-07T11:13:08.977Z,340
2016-05-07T11:14:09.183Z,320
2016-05-07T11:14:55.327Z,300
2016-05-07T11:16:09.188Z,265
2016-05-07T11:16:55.238Z,265
2016-05-07T11:18:09.413Z,285
2016-05-07T11:18:55.229Z,295
2016-05-07T11:19:55.246Z,300
2016-05-07T11:20:55.218Z,300
2016-05-07T11:21:58.251Z,320
2016-05-07T11:22:55.317Z,325
2016-05-07T11:23:55.242Z,310
2016-05-07T11:24:55.120Z,300
2016-05-07T11:25:55.247Z,295
2016-05-07T11:26:55.093Z,290
2016-05-07T11:27:55.221Z,280
2016-05-07T11:28:55.395Z,275
2016-05-07T11:30:09.320Z,270
2016-05-07T11:30:55.370Z,275
2016-05-07T11:32:09.434Z,290
2016-05-07T11:32:55.235Z,285
2016-05-07T11:33:55.612Z,285
2016-05-07T11:34:55.397Z,285
2016-05-07T11:35:56.024Z,285
2016-05-07T11:36:55.854Z,290
2016-05-07T11:37:55.936Z,295
2016-05-07T11:38:55.516Z,325
2016-05-07T11:39:55.878Z,355
2016-05-07T11:40:55.537Z,380
2016-05-07T11:41:55.275Z,430
2016-05-07T11:42:56.011Z,475
2016-05-07T11:43:55.373Z,505
2016-05-07T11:44:55.564Z,545
2016-05-07T11:45:55.597Z,550
2016-05-07T11:46:55.585Z,560
2016-05-07T11:47:55.806Z,565
2016-05-07T11:48:55.996Z,570
2016-05-07T11:49:55.358Z,565
2016-05-07T11:51:10.190Z,565
2016-05-07T11:51:55.660Z,545
2016-05-07T11:52:55.663Z,495
2016-05-07T11:53:55.744Z,445
2016-05-07T11:56:09.515Z,420
2016-05-07T11:57:09.830Z,445
2016-05-07T11:57:56.146Z,465
2016-05-07T11:58:55.804Z,470
2016-05-07T11:59:55.792Z,445
2016-05-07T12:00:55.997Z,405
2016-05-07T12:01:56.062Z,360
2016-05-07T12:02:55.175Z,345
2016-05-07T12:03:55.849Z,330
2016-05-07T12:05:10.180Z,315
2016-05-07T12:05:56.573Z,320
2016-05-07T12:06:55.764Z,320
2016-05-07T12:07:55.985Z,325
2016-05-07T12:08:55.441Z,330
2016-05-07T12:10:10.225Z,345
2016-05-07T12:10:56.149Z,360
2016-05-07T12:11:55.996Z,385
2016-05-07T12:12:56.483Z,410
2016-05-07T12:13:56.016Z,420
2016-05-07T12:14:56.035Z,425
2016-05-07T12:15:56.335Z,425
2016-05-07T12:16:56.274Z,425
2016-05-07T12:17:56.090Z,415
2016-05-07T12:18:55.952Z,395
2016-05-07T12:19:56.377Z,365
2016-05-07T12:20:56.566Z,325
2016-05-07T12:21:56.007Z,300
2016-05-07T12:22:56.432Z,290
2016-05-07T12:23:56.199Z,305
2016-05-07T12:24:56.156Z,320
2016-05-07T12:25:56.111Z,345
2016-05-07T12:27:10.162Z,380
2016-05-07T12:27:56.289Z,385
2016-05-07T12:28:56.698Z,385
2016-05-07T12:29:56.528Z,395
2016-05-07T12:30:56.422Z,410
2016-05-07T12:31:56.565Z,435
2016-05-07T12:32:56.380Z,465
2016-05-07T12:33:56.634Z,465
2016-05-07T12:34:56.416Z,410
2016-05-07T12:35:56.670Z,420
2016-05-07T12:36:56.688Z,415
2016-05-07T12:37:56.347Z,415
2016-05-07T12:38:56.302Z,405
2016-05-07T12:39:56.572Z,390
2016-05-07T12:40:56.745Z,370
2016-05-07T12:41:56.733Z,340
2016-05-07T12:42:57.047Z,320
2016-05-07T12:43:56.394Z,275
2016-05-07T12:44:56.616Z,320
2016-05-07T12:45:57.259Z,295
2016-05-07T12:46:56.980Z,350
2016-05-07T12:47:56.624Z,365
2016-05-07T12:49:56.535Z,425
2016-05-07T12:50:56.726Z,445
2016-05-07T12:51:56.774Z,445
2016-05-07T12:52:57.418Z,500
2016-05-07T12:53:56.779Z,490
2016-05-07T12:54:56.737Z,450
2016-05-07T12:55:56.754Z,430
2016-05-07T12:58:24.979Z,355
2016-05-07T12:58:56.794Z,345
2016-05-07T12:59:56.703Z,335
2016-05-07T13:00:56.831Z,315
2016-05-07T13:01:56.709Z,300
2016-05-07T13:02:56.898Z,295
2016-05-07T13:03:56.901Z,285
2016-05-07T13:04:56.700Z,285
2016-05-07T13:05:56.922Z,285
2016-05-07T13:06:57.175Z,285
2016-05-07T13:07:56.974Z,290
2016-05-07T13:08:57.102Z,285
2016-05-07T13:09:56.855Z,280
2016-05-07T13:10:57.108Z,285
2016-05-07T13:11:56.578Z,280
2016-05-07T13:12:56.988Z,285
2016-05-07T13:13:57.099Z,285
2016-05-07T13:14:57.275Z,285
2016-05-07T13:15:57.168Z,285
2016-05-07T13:16:57.388Z,290
2016-05-07T13:17:56.985Z,300
2016-05-07T13:18:56.988Z,300
2016-05-07T13:19:57.413Z,325
2016-05-07T13:20:57.431Z,345
2016-05-07T13:21:56.902Z,350
2016-05-07T13:23:11.280Z,345
2016-05-07T13:23:57.267Z,350
2016-05-07T13:24:56.942Z,340
2016-05-07T13:25:56.804Z,330
2016-05-07T13:26:57.307Z,315
2016-05-07T13:27:57.762Z,300
2016-05-07T13:28:57.343Z,290
2016-05-07T13:29:57.080Z,295
2016-05-07T13:30:57.379Z,310
2016-05-07T13:31:57.257Z,335
2016-05-07T13:32:57.370Z,350
2016-05-07T13:33:57.481Z,365
2016-05-07T13:34:56.875Z,375
2016-05-07T13:35:57.862Z,380
2016-05-07T13:36:57.678Z,375
2016-05-07T13:37:57.492Z,365
2016-05-07T13:38:57.433Z,360
2016-05-07T13:39:57.389Z,355
2016-05-07T13:40:57.531Z,340
2016-05-07T13:41:57.550Z,325
2016-05-07T13:42:58.162Z,325
2016-05-07T13:43:57.619Z,330
2016-05-07T13:44:57.636Z,345
2016-05-07T13:45:57.577Z,320
2016-05-07T13:47:11.422Z,350
2016-05-07T13:47:57.925Z,330
2016-05-07T13:48:57.522Z,345
2016-05-07T13:49:57.728Z,345
2016-05-07T13:50:57.980Z,345
2016-05-07T13:51:57.811Z,360
2016-05-07T13:52:57.768Z,370
2016-05-07T13:54:12.083Z,370
2016-05-07T13:54:57.882Z,355
2016-05-07T13:55:57.650Z,340
2016-05-07T13:56:57.824Z,335
2016-05-07T13:57:57.906Z,340
2016-05-07T13:58:58.251Z,320
2016-05-07T13:59:57.926Z,260
2016-05-07T14:00:58.148Z,265
2016-05-07T14:01:57.948Z,235
2016-05-07T14:03:58.203Z,225
2016-05-07T14:04:58.190Z,260
2016-05-07T14:05:57.567Z,235
2016-05-07T14:06:57.993Z,285
2016-05-07T14:07:57.933Z,240
2016-05-07T14:08:58.248Z,265
2016-05-07T14:09:57.906Z,280
2016-05-07T14:10:58.066Z,295
2016-05-07T14:11:58.069Z,310
2016-05-07T14:13:02.056Z,320
2016-05-07T14:13:58.136Z,300
2016-05-07T14:14:57.983Z,355
2016-05-07T14:15:58.033Z,365
2016-05-07T14:16:58.770Z,320
2016-05-07T14:17:58.663Z,375
2016-05-07T14:18:58.415Z,370
2016-05-07T14:19:58.230Z,365